sensor_id;sensor_type;location;lat;lon;timestamp;pressure;altitude;pressure_sealevel;temperature
8253;BMP280;61313;48.396;10.008;2023-01-04T00:01:02;97466.06;;;8.28
8253;BMP280;61313;48.396;10.008;2023-01-04T00:03:27;97469.88;;;8.30
8253;BMP280;61313;48.396;10.008;2023-01-04T00:05:53;97463.88;;;8.30
8253;BMP280;61313;48.396;10.008;2023-01-04T00:08:18;97464.13;;;8.24
8253;BMP280;61313;48.396;10.008;2023-01-04T00:10:44;97463.31;;;8.20
8253;BMP280;61313;48.396;10.008;2023-01-04T00:13:10;97463.69;;;8.22
8253;BMP280;61313;48.396;10.008;2023-01-04T00:15:35;97477.13;;;8.21
8253;BMP280;61313;48.396;10.008;2023-01-04T00:18:01;97479.44;;;8.22
8253;BMP280;61313;48.396;10.008;2023-01-04T00:20:26;97463.38;;;8.24
8253;BMP280;61313;48.396;10.008;2023-01-04T00:22:51;97460.75;;;8.24
8253;BMP280;61313;48.396;10.008;2023-01-04T00:25:17;97458.69;;;8.33
8253;BMP280;61313;48.396;10.008;2023-01-04T00:27:42;97462.41;;;8.32
8253;BMP280;61313;48.396;10.008;2023-01-04T00:30:08;97457.44;;;8.27
8253;BMP280;61313;48.396;10.008;2023-01-04T00:32:33;97457.09;;;8.29
8253;BMP280;61313;48.396;10.008;2023-01-04T00:34:59;97459.38;;;8.30
8253;BMP280;61313;48.396;10.008;2023-01-04T00:37:24;97442.19;;;8.33
8253;BMP280;61313;48.396;10.008;2023-01-04T00:39:50;97437.66;;;8.30
8253;BMP280;61313;48.396;10.008;2023-01-04T00:42:15;97444.06;;;8.32
8253;BMP280;61313;48.396;10.008;2023-01-04T00:44:40;97441.50;;;8.36
8253;BMP280;61313;48.396;10.008;2023-01-04T00:47:06;97441.84;;;8.34
8253;BMP280;61313;48.396;10.008;2023-01-04T00:49:32;97437.31;;;8.31
8253;BMP280;61313;48.396;10.008;2023-01-04T00:51:57;97436.91;;;8.29
8253;BMP280;61313;48.396;10.008;2023-01-04T00:54:23;97435.09;;;8.33
8253;BMP280;61313;48.396;10.008;2023-01-04T00:56:49;97423.78;;;8.29
8253;BMP280;61313;48.396;10.008;2023-01-04T00:59:16;97422.00;;;8.33
8253;BMP280;61313;48.396;10.008;2023-01-04T01:01:42;97422.19;;;8.24
8253;BMP280;61313;48.396;10.008;2023-01-04T01:04:11;97424.22;;;8.31
8253;BMP280;61313;48.396;10.008;2023-01-04T01:06:36;97420.53;;;8.36
8253;BMP280;61313;48.396;10.008;2023-01-04T01:09:02;97420.22;;;8.37
8253;BMP280;61313;48.396;10.008;2023-01-04T01:11:28;97414.84;;;8.30
8253;BMP280;61313;48.396;10.008;2023-01-04T01:13:55;97411.50;;;8.33
8253;BMP280;61313;48.396;10.008;2023-01-04T01:16:22;97404.00;;;8.32
8253;BMP280;61313;48.396;10.008;2023-01-04T01:18:48;97421.66;;;8.35
8253;BMP280;61313;48.396;10.008;2023-01-04T01:21:25;97419.44;;;8.37
8253;BMP280;61313;48.396;10.008;2023-01-04T01:23:53;97398.00;;;8.31
8253;BMP280;61313;48.396;10.008;2023-01-04T01:26:20;97404.47;;;8.37
8253;BMP280;61313;48.396;10.008;2023-01-04T01:28:46;97401.78;;;8.34
8253;BMP280;61313;48.396;10.008;2023-01-04T01:31:17;97410.81;;;8.36
8253;BMP280;61313;48.396;10.008;2023-01-04T01:33:44;97417.50;;;8.34
8253;BMP280;61313;48.396;10.008;2023-01-04T01:36:11;97422.41;;;8.35
8253;BMP280;61313;48.396;10.008;2023-01-04T01:38:38;97415.94;;;8.29
8253;BMP280;61313;48.396;10.008;2023-01-04T01:41:05;97418.00;;;8.39
8253;BMP280;61313;48.396;10.008;2023-01-04T01:46:54;97411.72;;;8.44
8253;BMP280;61313;48.396;10.008;2023-01-04T01:49:30;97405.56;;;8.36
8253;BMP280;61313;48.396;10.008;2023-01-04T01:52:00;97412.44;;;8.41
8253;BMP280;61313;48.396;10.008;2023-01-04T01:54:31;97418.25;;;8.34
8253;BMP280;61313;48.396;10.008;2023-01-04T01:57:00;97424.69;;;8.37
8253;BMP280;61313;48.396;10.008;2023-01-04T01:59:27;97425.88;;;8.39
8253;BMP280;61313;48.396;10.008;2023-01-04T02:01:54;97419.03;;;8.35
8253;BMP280;61313;48.396;10.008;2023-01-04T02:04:19;97412.59;;;8.32
8253;BMP280;61313;48.396;10.008;2023-01-04T02:06:48;97419.19;;;8.42
8253;BMP280;61313;48.396;10.008;2023-01-04T02:09:16;97410.28;;;8.46
8253;BMP280;61313;48.396;10.008;2023-01-04T02:11:41;97416.16;;;8.40
8253;BMP280;61313;48.396;10.008;2023-01-04T02:14:08;97405.16;;;8.34
8253;BMP280;61313;48.396;10.008;2023-01-04T02:27:54;97410.56;;;8.41
8253;BMP280;61313;48.396;10.008;2023-01-04T02:30:30;97400.47;;;8.43
8253;BMP280;61313;48.396;10.008;2023-01-04T02:36:15;97400.34;;;8.36
8253;BMP280;61313;48.396;10.008;2023-01-04T02:39:03;97396.75;;;8.44
8253;BMP280;61313;48.396;10.008;2023-01-04T02:41:46;97399.53;;;8.51
8253;BMP280;61313;48.396;10.008;2023-01-04T02:44:17;97383.63;;;8.44
8253;BMP280;61313;48.396;10.008;2023-01-04T02:50:22;97380.00;;;8.49
8253;BMP280;61313;48.396;10.008;2023-01-04T02:53:14;97382.28;;;8.50
8253;BMP280;61313;48.396;10.008;2023-01-04T02:55:45;97378.94;;;8.53
8253;BMP280;61313;48.396;10.008;2023-01-04T02:58:34;97381.38;;;8.62
8253;BMP280;61313;48.396;10.008;2023-01-04T03:07:00;97363.63;;;8.55
8253;BMP280;61313;48.396;10.008;2023-01-04T03:09:33;97372.53;;;8.51
8253;BMP280;61313;48.396;10.008;2023-01-04T03:12:03;97375.94;;;8.51
8253;BMP280;61313;48.396;10.008;2023-01-04T03:14:52;97376.94;;;8.47
8253;BMP280;61313;48.396;10.008;2023-01-04T03:17:20;97367.16;;;8.44
8253;BMP280;61313;48.396;10.008;2023-01-04T03:19:49;97367.91;;;8.44
8253;BMP280;61313;48.396;10.008;2023-01-04T03:22:22;97369.38;;;8.42
8253;BMP280;61313;48.396;10.008;2023-01-04T03:25:08;97373.78;;;8.38
8253;BMP280;61313;48.396;10.008;2023-01-04T03:27:53;97369.56;;;8.33
8253;BMP280;61313;48.396;10.008;2023-01-04T03:30:43;97371.09;;;8.34
8253;BMP280;61313;48.396;10.008;2023-01-04T03:33:29;97365.28;;;8.44
8253;BMP280;61313;48.396;10.008;2023-01-04T03:36:29;97363.00;;;8.43
8253;BMP280;61313;48.396;10.008;2023-01-04T03:39:20;97356.75;;;8.47
8253;BMP280;61313;48.396;10.008;2023-01-04T03:42:30;97344.59;;;8.58
8253;BMP280;61313;48.396;10.008;2023-01-04T03:45:22;97349.06;;;8.58
8253;BMP280;61313;48.396;10.008;2023-01-04T03:50:57;97345.00;;;8.60
8253;BMP280;61313;48.396;10.008;2023-01-04T03:53:24;97336.78;;;8.62
8253;BMP280;61313;48.396;10.008;2023-01-04T03:55:51;97334.38;;;8.53
8253;BMP280;61313;48.396;10.008;2023-01-04T03:58:18;97331.88;;;8.60
8253;BMP280;61313;48.396;10.008;2023-01-04T04:00:45;97331.41;;;8.55
8253;BMP280;61313;48.396;10.008;2023-01-04T04:03:11;97326.56;;;8.57
8253;BMP280;61313;48.396;10.008;2023-01-04T04:05:41;97324.47;;;8.66
8253;BMP280;61313;48.396;10.008;2023-01-04T04:08:25;97327.59;;;8.52
8253;BMP280;61313;48.396;10.008;2023-01-04T04:10:59;97320.16;;;8.54
8253;BMP280;61313;48.396;10.008;2023-01-04T04:13:42;97302.06;;;8.69
8253;BMP280;61313;48.396;10.008;2023-01-04T04:16:08;97306.88;;;8.67
8253;BMP280;61313;48.396;10.008;2023-01-04T04:18:33;97310.59;;;8.66
8253;BMP280;61313;48.396;10.008;2023-01-04T04:20:59;97302.81;;;8.69
8253;BMP280;61313;48.396;10.008;2023-01-04T04:23:24;97311.09;;;8.71
8253;BMP280;61313;48.396;10.008;2023-01-04T04:25:49;97315.41;;;8.60
8253;BMP280;61313;48.396;10.008;2023-01-04T04:28:15;97310.19;;;8.63
8253;BMP280;61313;48.396;10.008;2023-01-04T04:30:40;97310.19;;;8.63
8253;BMP280;61313;48.396;10.008;2023-01-04T04:33:06;97321.25;;;8.53
8253;BMP280;61313;48.396;10.008;2023-01-04T04:35:31;97316.31;;;8.48
8253;BMP280;61313;48.396;10.008;2023-01-04T04:37:56;97315.97;;;8.50
8253;BMP280;61313;48.396;10.008;2023-01-04T04:40:22;97320.56;;;8.56
8253;BMP280;61313;48.396;10.008;2023-01-04T04:43:07;97313.34;;;8.50
8253;BMP280;61313;48.396;10.008;2023-01-04T04:45:33;97310.44;;;8.55
8253;BMP280;61313;48.396;10.008;2023-01-04T04:47:58;97314.56;;;8.56
8253;BMP280;61313;48.396;10.008;2023-01-04T04:50:23;97312.69;;;8.56
8253;BMP280;61313;48.396;10.008;2023-01-04T04:52:49;97312.06;;;8.63
8253;BMP280;61313;48.396;10.008;2023-01-04T04:55:14;97305.38;;;8.66
8253;BMP280;61313;48.396;10.008;2023-01-04T04:57:40;97312.69;;;8.56
8253;BMP280;61313;48.396;10.008;2023-01-04T05:00:06;97312.16;;;8.47
8253;BMP280;61313;48.396;10.008;2023-01-04T05:02:32;97323.53;;;8.55
8253;BMP280;61313;48.396;10.008;2023-01-04T05:04:57;97319.16;;;8.62
8253;BMP280;61313;48.396;10.008;2023-01-04T05:07:23;97315.06;;;8.61
8253;BMP280;61313;48.396;10.008;2023-01-04T05:09:48;97319.13;;;8.59
8253;BMP280;61313;48.396;10.008;2023-01-04T05:12:13;97318.44;;;8.62
8253;BMP280;61313;48.396;10.008;2023-01-04T05:14:58;97318.19;;;8.71
8253;BMP280;61313;48.396;10.008;2023-01-04T05:17:23;97308.66;;;8.82
8253;BMP280;61313;48.396;10.008;2023-01-04T05:19:48;97304.25;;;8.67
8253;BMP280;61313;48.396;10.008;2023-01-04T05:22:14;97307.56;;;8.63
8253;BMP280;61313;48.396;10.008;2023-01-04T05:24:39;97306.59;;;8.72
8253;BMP280;61313;48.396;10.008;2023-01-04T05:27:04;97310.69;;;8.69
8253;BMP280;61313;48.396;10.008;2023-01-04T05:29:30;97306.81;;;8.63
8253;BMP280;61313;48.396;10.008;2023-01-04T05:32:14;97301.97;;;8.65
8253;BMP280;61313;48.396;10.008;2023-01-04T05:34:39;97300.22;;;8.73
8253;BMP280;61313;48.396;10.008;2023-01-04T05:37:05;97295.41;;;8.75
8253;BMP280;61313;48.396;10.008;2023-01-04T05:39:30;97298.03;;;8.75
8253;BMP280;61313;48.396;10.008;2023-01-04T05:41:55;97290.56;;;8.77
8253;BMP280;61313;48.396;10.008;2023-01-04T05:44:39;97304.88;;;8.83
8253;BMP280;61313;48.396;10.008;2023-01-04T05:47:05;97309.69;;;8.77
8253;BMP280;61313;48.396;10.008;2023-01-04T05:49:30;97308.28;;;8.83
8253;BMP280;61313;48.396;10.008;2023-01-04T05:51:55;97295.47;;;8.78
8253;BMP280;61313;48.396;10.008;2023-01-04T05:54:21;97290.66;;;8.84
8253;BMP280;61313;48.396;10.008;2023-01-04T05:56:46;97284.22;;;8.78
8253;BMP280;61313;48.396;10.008;2023-01-04T05:59:11;97282.34;;;8.78
8253;BMP280;61313;48.396;10.008;2023-01-04T06:01:37;97276.69;;;8.76
8253;BMP280;61313;48.396;10.008;2023-01-04T06:04:02;97279.03;;;8.81
8253;BMP280;61313;48.396;10.008;2023-01-04T06:06:28;97290.66;;;8.84
8253;BMP280;61313;48.396;10.008;2023-01-04T06:08:53;97275.81;;;8.69
8253;BMP280;61313;48.396;10.008;2023-01-04T06:11:18;97279.25;;;8.73
8253;BMP280;61313;48.396;10.008;2023-01-04T06:13:44;97277.34;;;8.70
8253;BMP280;61313;48.396;10.008;2023-01-04T06:16:09;97283.38;;;8.74
8253;BMP280;61313;48.396;10.008;2023-01-04T06:18:35;97284.09;;;8.71
8253;BMP280;61313;48.396;10.008;2023-01-04T06:21:00;97283.03;;;8.75
8253;BMP280;61313;48.396;10.008;2023-01-04T06:23:25;97279.91;;;8.66
8253;BMP280;61313;48.396;10.008;2023-01-04T06:25:51;97283.38;;;8.74
8253;BMP280;61313;48.396;10.008;2023-01-04T06:28:16;97280.59;;;8.86
8253;BMP280;61313;48.396;10.008;2023-01-04T06:30:41;97277.78;;;8.75
8253;BMP280;61313;48.396;10.008;2023-01-04T06:33:07;97275.88;;;8.72
8253;BMP280;61313;48.396;10.008;2023-01-04T06:35:32;97274.13;;;8.57
8253;BMP280;61313;48.396;10.008;2023-01-04T06:38:00;97275.13;;;8.72
8253;BMP280;61313;48.396;10.008;2023-01-04T06:40:25;97260.09;;;8.69
8253;BMP280;61313;48.396;10.008;2023-01-04T06:42:51;97267.28;;;8.72
8253;BMP280;61313;48.396;10.008;2023-01-04T06:45:16;97263.81;;;8.68
8253;BMP280;61313;48.396;10.008;2023-01-04T06:47:42;97261.53;;;8.66
8253;BMP280;61313;48.396;10.008;2023-01-04T06:50:08;97262.94;;;8.60
8253;BMP280;61313;48.396;10.008;2023-01-04T06:52:34;97265.34;;;8.69
8253;BMP280;61313;48.396;10.008;2023-01-04T06:54:59;97268.19;;;8.60
8253;BMP280;61313;48.396;10.008;2023-01-04T06:57:25;97270.94;;;8.67
8253;BMP280;61313;48.396;10.008;2023-01-04T06:59:51;97266.38;;;8.87
8253;BMP280;61313;48.396;10.008;2023-01-04T07:02:17;97264.06;;;8.82
8253;BMP280;61313;48.396;10.008;2023-01-04T07:04:42;97257.88;;;8.71
8253;BMP280;61313;48.396;10.008;2023-01-04T07:07:08;97260.09;;;8.69
8253;BMP280;61313;48.396;10.008;2023-01-04T07:09:33;97253.16;;;8.80
8253;BMP280;61313;48.396;10.008;2023-01-04T07:12:00;97258.75;;;8.78
8253;BMP280;61313;48.396;10.008;2023-01-04T07:14:25;97253.31;;;8.90
8253;BMP280;61313;48.396;10.008;2023-01-04T07:16:51;97251.97;;;9.00
8253;BMP280;61313;48.396;10.008;2023-01-04T07:19:16;97242.59;;;9.03
8253;BMP280;61313;48.396;10.008;2023-01-04T07:21:41;97245.19;;;8.99
8253;BMP280;61313;48.396;10.008;2023-01-04T07:24:07;97242.84;;;8.94
8253;BMP280;61313;48.396;10.008;2023-01-04T07:26:33;97245.03;;;8.88
8253;BMP280;61313;48.396;10.008;2023-01-04T07:28:59;97243.78;;;9.05
8253;BMP280;61313;48.396;10.008;2023-01-04T07:31:47;97243.38;;;9.29
8253;BMP280;61313;48.396;10.008;2023-01-04T07:34:14;97241.94;;;9.35
8253;BMP280;61313;48.396;10.008;2023-01-04T07:36:40;97236.69;;;9.35
8253;BMP280;61313;48.396;10.008;2023-01-04T07:41:52;97244.38;;;9.21
8253;BMP280;61313;48.396;10.008;2023-01-04T07:44:17;97240.19;;;9.17
8253;BMP280;61313;48.396;10.008;2023-01-04T07:46:43;97242.13;;;9.20
8253;BMP280;61313;48.396;10.008;2023-01-04T07:49:14;97240.44;;;9.08
8253;BMP280;61313;48.396;10.008;2023-01-04T07:51:40;97239.03;;;9.14
8253;BMP280;61313;48.396;10.008;2023-01-04T07:54:06;97251.28;;;9.07
8253;BMP280;61313;48.396;10.008;2023-01-04T07:56:31;97244.53;;;9.06
8253;BMP280;61313;48.396;10.008;2023-01-04T07:58:57;97241.47;;;9.00
8253;BMP280;61313;48.396;10.008;2023-01-04T08:01:24;97242.00;;;9.13
8253;BMP280;61313;48.396;10.008;2023-01-04T08:03:51;97240.34;;;9.01
8253;BMP280;61313;48.396;10.008;2023-01-04T08:06:18;97243.16;;;9.15
8253;BMP280;61313;48.396;10.008;2023-01-04T08:08:44;97229.13;;;9.04
8253;BMP280;61313;48.396;10.008;2023-01-04T08:11:15;97227.31;;;9.08
8253;BMP280;61313;48.396;10.008;2023-01-04T08:13:41;97233.19;;;8.98
8253;BMP280;61313;48.396;10.008;2023-01-04T08:16:07;97230.16;;;8.96
8253;BMP280;61313;48.396;10.008;2023-01-04T08:18:36;97226.75;;;8.95
8253;BMP280;61313;48.396;10.008;2023-01-04T08:21:06;97239.53;;;8.97
8253;BMP280;61313;48.396;10.008;2023-01-04T08:23:33;97238.94;;;9.07
8253;BMP280;61313;48.396;10.008;2023-01-04T08:26:03;97238.53;;;9.05
8253;BMP280;61313;48.396;10.008;2023-01-04T08:28:29;97243.41;;;9.07
8253;BMP280;61313;48.396;10.008;2023-01-04T08:30:55;97254.69;;;9.07
8253;BMP280;61313;48.396;10.008;2023-01-04T08:33:20;97262.13;;;9.05
8253;BMP280;61313;48.396;10.008;2023-01-04T08:35:46;97256.19;;;9.08
8253;BMP280;61313;48.396;10.008;2023-01-04T08:38:11;97255.19;;;9.16
8253;BMP280;61313;48.396;10.008;2023-01-04T08:40:36;97252.63;;;9.20
8253;BMP280;61313;48.396;10.008;2023-01-04T08:43:02;97245.78;;;9.15
8253;BMP280;61313;48.396;10.008;2023-01-04T08:45:27;97248.06;;;9.17
8253;BMP280;61313;48.396;10.008;2023-01-04T08:47:53;97246.19;;;9.17
8253;BMP280;61313;48.396;10.008;2023-01-04T08:50:19;97244.06;;;9.26
8253;BMP280;61313;48.396;10.008;2023-01-04T08:52:46;97244.75;;;9.20
8253;BMP280;61313;48.396;10.008;2023-01-04T08:55:11;97239.94;;;9.25
8253;BMP280;61313;48.396;10.008;2023-01-04T08:57:37;97231.03;;;9.33
8253;BMP280;61313;48.396;10.008;2023-01-04T09:00:03;97223.75;;;9.20
8253;BMP280;61313;48.396;10.008;2023-01-04T09:02:29;97227.22;;;9.27
8253;BMP280;61313;48.396;10.008;2023-01-04T09:04:54;97230.97;;;9.30
8253;BMP280;61313;48.396;10.008;2023-01-04T09:07:29;97225.69;;;9.26
8253;BMP280;61313;48.396;10.008;2023-01-04T09:09:55;97221.47;;;9.18
8253;BMP280;61313;48.396;10.008;2023-01-04T09:12:22;97217.31;;;9.17
8253;BMP280;61313;48.396;10.008;2023-01-04T09:14:47;97221.28;;;9.34
8253;BMP280;61313;48.396;10.008;2023-01-04T09:17:13;97217.41;;;9.24
8253;BMP280;61313;48.396;10.008;2023-01-04T09:19:38;97214.50;;;9.29
8253;BMP280;61313;48.396;10.008;2023-01-04T09:22:04;97219.75;;;9.29
8253;BMP280;61313;48.396;10.008;2023-01-04T09:24:31;97215.63;;;9.32
8253;BMP280;61313;48.396;10.008;2023-01-04T09:26:57;97220.84;;;9.28
8253;BMP280;61313;48.396;10.008;2023-01-04T09:29:22;97220.78;;;9.25
8253;BMP280;61313;48.396;10.008;2023-01-04T09:31:48;97211.47;;;9.27
8253;BMP280;61313;48.396;10.008;2023-01-04T09:34:14;97211.47;;;9.27
8253;BMP280;61313;48.396;10.008;2023-01-04T09:36:40;97226.13;;;9.32
8253;BMP280;61313;48.396;10.008;2023-01-04T09:39:05;97218.84;;;9.18
8253;BMP280;61313;48.396;10.008;2023-01-04T09:41:35;97219.69;;;9.26
8253;BMP280;61313;48.396;10.008;2023-01-04T09:46:44;97218.66;;;9.34
8253;BMP280;61313;48.396;10.008;2023-01-04T09:51:46;97209.97;;;9.30
8253;BMP280;61313;48.396;10.008;2023-01-04T09:54:18;97201.31;;;9.26
8253;BMP280;61313;48.396;10.008;2023-01-04T09:56:55;97197.38;;;9.13
8253;BMP280;61313;48.396;10.008;2023-01-04T09:59:28;97183.69;;;9.26
8253;BMP280;61313;48.396;10.008;2023-01-04T10:01:58;97175.84;;;9.30
8253;BMP280;61313;48.396;10.008;2023-01-04T10:04:42;97171.63;;;9.22
8253;BMP280;61313;48.396;10.008;2023-01-04T10:07:29;97185.56;;;9.26
8253;BMP280;61313;48.396;10.008;2023-01-04T10:09:55;97191.56;;;9.26
8253;BMP280;61313;48.396;10.008;2023-01-04T10:17:43;97179.00;;;9.43
8253;BMP280;61313;48.396;10.008;2023-01-04T10:23:15;97159.88;;;9.79
8253;BMP280;61313;48.396;10.008;2023-01-04T10:25:55;97161.00;;;9.78
8253;BMP280;61313;48.396;10.008;2023-01-04T10:31:15;97167.13;;;9.89
8253;BMP280;61313;48.396;10.008;2023-01-04T10:34:38;97155.81;;;9.85
8253;BMP280;61313;48.396;10.008;2023-01-04T10:36:37;97148.19;;;9.73
8253;BMP280;61313;48.396;10.008;2023-01-04T10:39:10;97154.81;;;9.60
8253;BMP280;61313;48.396;10.008;2023-01-04T10:45:14;97144.81;;;9.72
8253;BMP280;61313;48.396;10.008;2023-01-04T10:52:57;97135.34;;;9.64
8253;BMP280;61313;48.396;10.008;2023-01-04T10:55:30;97127.50;;;9.68
8253;BMP280;61313;48.396;10.008;2023-01-04T10:58:05;97119.19;;;9.62
8253;BMP280;61313;48.396;10.008;2023-01-04T11:00:52;97125.97;;;9.63
8253;BMP280;61313;48.396;10.008;2023-01-04T11:03:24;97125.97;;;9.63
8253;BMP280;61313;48.396;10.008;2023-01-04T11:05:58;97127.91;;;9.70
8253;BMP280;61313;48.396;10.008;2023-01-04T11:11:31;97110.69;;;9.76
8253;BMP280;61313;48.396;10.008;2023-01-04T11:13:58;97106.97;;;9.81
8253;BMP280;61313;48.396;10.008;2023-01-04T11:16:25;97105.41;;;9.72
8253;BMP280;61313;48.396;10.008;2023-01-04T11:18:51;97112.53;;;9.72
8253;BMP280;61313;48.396;10.008;2023-01-04T11:21:22;97111.88;;;9.82
8253;BMP280;61313;48.396;10.008;2023-01-04T11:23:51;97101.38;;;9.82
8253;BMP280;61313;48.396;10.008;2023-01-04T11:26:21;97078.50;;;9.86
8253;BMP280;61313;48.396;10.008;2023-01-04T11:28:57;97077.03;;;9.92
8253;BMP280;61313;48.396;10.008;2023-01-04T11:31:44;97078.53;;;9.90
8253;BMP280;61313;48.396;10.008;2023-01-04T11:34:10;97083.38;;;9.88
8253;BMP280;61313;48.396;10.008;2023-01-04T11:36:44;97076.31;;;9.92
8253;BMP280;61313;48.396;10.008;2023-01-04T11:39:17;97084.19;;;9.95
8253;BMP280;61313;48.396;10.008;2023-01-04T11:42:00;97086.88;;;9.99
8253;BMP280;61313;48.396;10.008;2023-01-04T11:44:33;97079.75;;;10.03
8253;BMP280;61313;48.396;10.008;2023-01-04T11:47:25;97077.91;;;10.07
8253;BMP280;61313;48.396;10.008;2023-01-04T11:49:53;97079.09;;;10.17
8253;BMP280;61313;48.396;10.008;2023-01-04T11:52:35;97069.78;;;10.30
8253;BMP280;61313;48.396;10.008;2023-01-04T11:55:24;97070.72;;;10.55
8253;BMP280;61313;48.396;10.008;2023-01-04T11:58:10;97064.75;;;10.69
8253;BMP280;61313;48.396;10.008;2023-01-04T12:00:37;97049.75;;;10.73
8253;BMP280;61313;48.396;10.008;2023-01-04T12:03:14;97042.91;;;10.61
8253;BMP280;61313;48.396;10.008;2023-01-04T12:05:40;97052.00;;;10.67
8253;BMP280;61313;48.396;10.008;2023-01-04T12:08:05;97046.38;;;10.79
8253;BMP280;61313;48.396;10.008;2023-01-04T12:10:31;97035.16;;;10.90
8253;BMP280;61313;48.396;10.008;2023-01-04T12:12:59;97031.38;;;10.87
8253;BMP280;61313;48.396;10.008;2023-01-04T12:15:38;97027.97;;;10.86
8253;BMP280;61313;48.396;10.008;2023-01-04T12:18:18;97042.28;;;10.93
8253;BMP280;61313;48.396;10.008;2023-01-04T12:20:45;97041.91;;;10.83
8253;BMP280;61313;48.396;10.008;2023-01-04T12:23:11;97037.00;;;10.93
8253;BMP280;61313;48.396;10.008;2023-01-04T12:25:40;97039.66;;;10.96
8253;BMP280;61313;48.396;10.008;2023-01-04T12:28:43;97035.94;;;11.11
8253;BMP280;61313;48.396;10.008;2023-01-04T12:33:53;97043.09;;;11.14
8253;BMP280;61313;48.396;10.008;2023-01-04T12:50:10;97018.97;;;10.84
8253;BMP280;61313;48.396;10.008;2023-01-04T12:52:47;97015.63;;;10.98
8253;BMP280;61313;48.396;10.008;2023-01-04T12:57:56;97016.34;;;10.87
8253;BMP280;61313;48.396;10.008;2023-01-04T13:08:11;97015.94;;;10.85
8253;BMP280;61313;48.396;10.008;2023-01-04T13:10:42;97011.44;;;10.82
8253;BMP280;61313;48.396;10.008;2023-01-04T13:13:42;97021.97;;;10.82
8253;BMP280;61313;48.396;10.008;2023-01-04T13:16:22;97021.19;;;10.78
8253;BMP280;61313;48.396;10.008;2023-01-04T13:18:54;97014.81;;;10.79
8253;BMP280;61313;48.396;10.008;2023-01-04T13:23:59;96998.28;;;10.82
8253;BMP280;61313;48.396;10.008;2023-01-04T13:29:14;97002.47;;;11.40
8253;BMP280;61313;48.396;10.008;2023-01-04T13:31:55;97003.22;;;11.16
8253;BMP280;61313;48.396;10.008;2023-01-04T13:34:46;97004.69;;;10.96
8253;BMP280;61313;48.396;10.008;2023-01-04T13:37:39;96999.06;;;11.01
8253;BMP280;61313;48.396;10.008;2023-01-04T13:42:40;97004.28;;;10.86
8253;BMP280;61313;48.396;10.008;2023-01-04T13:47:40;96993.41;;;10.92
8253;BMP280;61313;48.396;10.008;2023-01-04T13:50:24;96988.16;;;10.92
8253;BMP280;61313;48.396;10.008;2023-01-04T13:52:50;96985.13;;;10.86
8253;BMP280;61313;48.396;10.008;2023-01-04T13:55:20;96996.75;;;10.74
8253;BMP280;61313;48.396;10.008;2023-01-04T14:00:34;96975.72;;;10.74
8253;BMP280;61313;48.396;10.008;2023-01-04T14:03:24;96985.88;;;10.83
8253;BMP280;61313;48.396;10.008;2023-01-04T14:05:51;96968.19;;;10.80
8253;BMP280;61313;48.396;10.008;2023-01-04T14:08:44;96975.31;;;10.72
8253;BMP280;61313;48.396;10.008;2023-01-04T14:11:16;96974.19;;;10.73
8253;BMP280;61313;48.396;10.008;2023-01-04T14:14:36;96971.91;;;10.65
8253;BMP280;61313;48.396;10.008;2023-01-04T14:22:38;96963.28;;;10.64
8253;BMP280;61313;48.396;10.008;2023-01-04T14:38:37;96954.25;;;10.58
8253;BMP280;61313;48.396;10.008;2023-01-04T14:41:11;96947.84;;;10.56
8253;BMP280;61313;48.396;10.008;2023-01-04T14:43:44;96920.41;;;10.57
8253;BMP280;61313;48.396;10.008;2023-01-04T14:46:10;96917.41;;;10.58
8253;BMP280;61313;48.396;10.008;2023-01-04T14:48:35;96921.56;;;10.59
8253;BMP280;61313;48.396;10.008;2023-01-04T14:51:02;96919.66;;;10.56
8253;BMP280;61313;48.396;10.008;2023-01-04T14:53:28;96918.88;;;10.52
8253;BMP280;61313;48.396;10.008;2023-01-04T14:55:54;96923.03;;;10.49
8253;BMP280;61313;48.396;10.008;2023-01-04T14:58:20;96927.16;;;10.54
8253;BMP280;61313;48.396;10.008;2023-01-04T15:00:45;96925.69;;;10.57
8253;BMP280;61313;48.396;10.008;2023-01-04T15:03:11;96925.69;;;10.57
8253;BMP280;61313;48.396;10.008;2023-01-04T15:05:36;96920.03;;;10.58
8253;BMP280;61313;48.396;10.008;2023-01-04T15:08:02;96924.94;;;10.67
8253;BMP280;61313;48.396;10.008;2023-01-04T15:10:29;96910.63;;;10.54
8253;BMP280;61313;48.396;10.008;2023-01-04T15:12:55;96919.63;;;10.53
8253;BMP280;61313;48.396;10.008;2023-01-04T15:15:23;96914.38;;;10.53
8253;BMP280;61313;48.396;10.008;2023-01-04T15:17:48;96917.00;;;10.53
8253;BMP280;61313;48.396;10.008;2023-01-04T15:20:14;96922.28;;;10.49
8253;BMP280;61313;48.396;10.008;2023-01-04T15:22:39;96934.66;;;10.45
8253;BMP280;61313;48.396;10.008;2023-01-04T15:25:06;96932.03;;;10.41
8253;BMP280;61313;48.396;10.008;2023-01-04T15:27:32;96934.28;;;10.43
8253;BMP280;61313;48.396;10.008;2023-01-04T15:29:57;96936.53;;;10.44
8253;BMP280;61313;48.396;10.008;2023-01-04T15:32:23;96932.38;;;10.40
8253;BMP280;61313;48.396;10.008;2023-01-04T15:34:48;96916.59;;;10.43
8253;BMP280;61313;48.396;10.008;2023-01-04T15:37:14;96927.13;;;10.40
8253;BMP280;61313;48.396;10.008;2023-01-04T15:39:40;96931.59;;;10.36
8253;BMP280;61313;48.396;10.008;2023-01-04T15:42:05;96929.38;;;10.41
8253;BMP280;61313;48.396;10.008;2023-01-04T15:45:00;96928.63;;;10.41
8253;BMP280;61313;48.396;10.008;2023-01-04T15:47:27;96923.69;;;10.36
8253;BMP280;61313;48.396;10.008;2023-01-04T15:49:53;96920.31;;;10.35
8253;BMP280;61313;48.396;10.008;2023-01-04T15:52:18;96906.44;;;10.38
8253;BMP280;61313;48.396;10.008;2023-01-04T15:54:44;96907.59;;;10.41
8253;BMP280;61313;48.396;10.008;2023-01-04T15:57:09;96906.09;;;10.40
8253;BMP280;61313;48.396;10.008;2023-01-04T15:59:35;96908.31;;;10.34
8253;BMP280;61313;48.396;10.008;2023-01-04T16:02:00;96901.16;;;10.31
8253;BMP280;61313;48.396;10.008;2023-01-04T16:04:26;96895.88;;;10.35
8253;BMP280;61313;48.396;10.008;2023-01-04T16:06:53;96899.66;;;10.37
8253;BMP280;61313;48.396;10.008;2023-01-04T16:09:18;96914.31;;;10.38
8253;BMP280;61313;48.396;10.008;2023-01-04T16:11:43;96923.34;;;10.34
8253;BMP280;61313;48.396;10.008;2023-01-04T16:14:28;96922.91;;;10.28
8253;BMP280;61313;48.396;10.008;2023-01-04T16:16:54;96931.94;;;10.31
8253;BMP280;61313;48.396;10.008;2023-01-04T16:19:20;96930.09;;;10.38
8253;BMP280;61313;48.396;10.008;2023-01-04T16:21:45;96920.31;;;10.32
8253;BMP280;61313;48.396;10.008;2023-01-04T16:24:10;96921.06;;;10.36
8253;BMP280;61313;48.396;10.008;2023-01-04T16:26:36;96922.91;;;10.28
8253;BMP280;61313;48.396;10.008;2023-01-04T16:29:02;96924.09;;;10.38
8253;BMP280;61313;48.396;10.008;2023-01-04T16:31:35;96924.81;;;10.35
8253;BMP280;61313;48.396;10.008;2023-01-04T16:34:01;96922.94;;;10.32